PRG weather

Edgar County Airport
Paris, Illinois, United States

Public forecast

Using degrees Fahrenheit for public forecast. Weather courtesy of forecast.io.

Current aviation weather report (METAR) for Edgar County Airport

Retrieved 2019/12/09 12:35 UTC (4 minutes ago):

KPRG 091235Z AUTO 21012KT 7SM OVC010 11/10 A2965 RMK AO2 T01080098

Closest aviation forecast (TAF) to Edgar County Airport

Closest forecast is Terre Haute Regional Airport, Hulman Field, 22.4 nm (41.6 km) SE. Retrieved 2019/12/09 12:22 UTC (17 minutes ago):

TAF KHUF 091120Z 0912/1012 20012KT 4SM SHRA OVC007 FM092000 23010KT 4SM -SHRA OVC003 FM092300 25010KT P6SM VCSH OVC008 FM100200 29015G22KT P6SM VCSH OVC015 FM100400 30016G24KT P6SM BKN025 FM101000 30011KT P6SM OVC120